Terminal Aerodrome Forecast
Issued by NWS Billings, MT

Home | Current Version | Previous Version | Graphics & Text | Print | Product List | Glossary On
Versions: 1 2 3 4 5 6 7 8 9 10 11 12 13 14 15 16 17 18 19 20 21 22 23 24 25 26 27 28 29 30 31 32 33 34 35 36
292
FTUS45 KBYZ 011929 AAA
TAFMLS
TAF AMD
KMLS 011929Z 0119/0218 15004KT P6SM OVC060
      TEMPO 0119/0121 BKN025 OVC040
     FM020900 27006KT P6SM SCT030 BKN050
     FM021200 27008KT P6SM -SN BKN002 OVC004=

USA.gov is the U.S. government's official web portal to all federal, state and local government web resources and services.